Data for 08/17/2017

Time Sea-Level Adjusted Pressure Absolute Pressure Temperature Relative Humidity Dew Point   
(mb) (inHg) (mb) (inHg) (C) (F) (%) (C) (F)
00:05 1019 30.09 848 25.04 15.3 59.6 45 3.6 38.6
00:10 1019 30.09 848 25.04 15.4 59.8 44 3.2 37.8
00:15 1019 30.09 848 25.04 15.8 60.5 41 2.8 37
00:20 1019 30.09 848 25.04 16.1 61 40 2.8 37
00:25 1019 30.09 849 25.07 16.3 61.3 39 2.3 36.1
00:30 1019 30.09 849 25.07 16.4 61.5 40 3 37.4
00:35 1019 30.09 849 25.07 16.2 61.1 40 2.9 37.1
00:40 1019 30.09 849 25.07 16.2 61.1 37 1.7 35.1
00:45 1019 30.09 849 25.07 16.3 61.3 39 2.5 36.4
00:50 1019 30.09 849 25.07 16 60.8 42 3.3 37.9
00:55 1019 30.09 849 25.07 15.6 60.1 43 3.3 37.9
01:00 1019 30.09 849 25.07 15.6 60.1 41 2.4 36.3
01:05 1019 30.09 849 25.07 15.9 60.5 40 2.4 36.4
01:10 1020 30.12 849 25.07 15.9 60.5 40 2.4 36.4
01:15 1019 30.09 849 25.07 15.8 60.5 40 2.5 36.5
01:20 1019 30.09 849 25.07 16 60.7 38 1.9 35.4
01:25 1019 30.09 849 25.07 16.2 61.1 39 2.4 36.4
01:30 1019 30.09 849 25.07 16 60.8 40 2.6 36.6
01:35 1019 30.09 849 25.07 16 60.8 39 2.1 35.8
01:40 1019 30.09 849 25.07 16.1 60.9 39 2.3 36.2
01:45 1020 30.12 849 25.07 16.1 61 38 2 35.7
01:50 1020 30.12 849 25.07 16 60.8 40 2.6 36.7
01:55 1020 30.12 849 25.07 15.7 60.3 40 2.4 36.3
02:00 1020 30.12 849 25.07 15.9 60.6 38 1.7 35.1
02:05 1020 30.12 849 25.07 16.2 61.1 37 1.5 34.8
02:10 1020 30.12 849 25.07 16.2 61.1 39 2.3 36.1
02:15 1020 30.12 849 25.07 16.2 61.1 39 2.3 36.2
02:20 1020 30.12 849 25.07 16.1 61 40 2.5 36.5
02:25 1020 30.12 849 25.07 16 60.7 41 2.7 36.9
02:30 1020 30.12 849 25.07 15.8 60.4 40 2.4 36.3
02:35 1020 30.12 849 25.07 15.7 60.3 41 2.5 36.5
02:40 1020 30.12 849 25.07 15.6 60 43 3.1 37.5
02:45 1020 30.12 849 25.07 15.3 59.5 45 3.3 38
02:50 1020 30.12 849 25.07 15.1 59.2 43 2.9 37.2
02:55 1020 30.12 849 25.07 15.2 59.4 43 2.8 37
03:00 1020 30.12 849 25.07 15.3 59.5 43 3 37.4
03:05 1020 30.12 849 25.07 15.3 59.5 43 2.8 37.1
03:10 1020 30.12 849 25.07 15.2 59.3 44 3.2 37.8
03:15 1020 30.12 849 25.07 14.7 58.4 47 3.7 38.7
03:20 1020 30.12 849 25.07 14.5 58.1 44 2.6 36.7
03:25 1020 30.12 849 25.07 14.5 58.2 43 2.1 35.8
03:30 1020 30.12 849 25.07 14.9 58.7 43 2.6 36.7
03:35 1020 30.12 849 25.07 14.8 58.7 44 2.8 37
03:40 1020 30.12 849 25.07 14.7 58.5 43 2.4 36.2
03:45 1020 30.12 849 25.07 14.7 58.4 43 2.4 36.2
03:50 1020 30.12 849 25.07 14.8 58.6 42 2.1 35.7
03:55 1020 30.12 849 25.07 14.9 58.8 42 2.3 36.2
04:00 1020 30.12 849 25.07 14.8 58.6 43 2.5 36.4
04:05 1020 30.12 849 25.07 14.7 58.4 43 2.5 36.4
04:10 1020 30.12 849 25.07 14.6 58.2 43 2.1 35.7
04:15 1020 30.12 849 25.07 14.4 57.9 44 2.5 36.4
04:20 1020 30.12 849 25.07 14.2 57.5 45 2.4 36.3
04:25 1020 30.12 849 25.07 14 57.1 47 2.8 37.1
04:30 1020 30.12 849 25.07 13.6 56.5 49 3.2 37.7
04:35 1020 30.12 849 25.07 13.3 55.9 49 2.9 37.3
04:40 1020 30.12 849 25.07 13.1 55.6 50 3 37.3
04:45 1020 30.12 849 25.07 12.9 55.3 50 2.8 37.1
04:50 1020 30.12 849 25.07 12.8 55 52 3.2 37.8
04:55 1020 30.12 849 25.07 12.4 54.3 54 3.4 38.2
05:00 1020 30.12 850 25.1 12.1 53.7 56 3.5 38.3
05:05 1020 30.12 850 25.1 11.8 53.3 56 3.4 38.1
05:10 1020 30.12 850 25.1 11.7 53.1 56 3.3 37.9
05:15 1020 30.12 850 25.1 11.7 53 56 3.3 38
05:20 1021 30.15 850 25.1 11.6 53 56 3.3 38
05:25 1021 30.15 850 25.1 11.6 52.9 56 3.2 37.7
05:30 1021 30.15 850 25.1 11.7 53.1 56 3.2 37.8
05:35 1021 30.15 850 25.1 11.8 53.2 54 2.8 37
05:40 1021 30.15 850 25.1 11.9 53.4 54 3 37.3
05:45 1021 30.15 850 25.1 11.9 53.4 54 2.9 37.2
05:50 1021 30.15 850 25.1 12 53.6 52 2.6 36.8
05:55 1021 30.15 850 25.1 12.2 54 52 2.7 36.8
06:00 1021 30.15 850 25.1 12.3 54.1 52 2.8 37
06:05 1021 30.15 850 25.1 12.3 54.1 52 2.7 36.8
06:10 1021 30.15 850 25.1 12.4 54.2 51 2.6 36.6
06:15 1021 30.15 850 25.1 12.4 54.4 51 2.7 36.8
06:20 1021 30.15 850 25.1 12.4 54.3 51 2.6 36.6
06:25 1021 30.15 850 25.1 12.4 54.4 50 2.4 36.4
06:30 1021 30.15 850 25.1 12.6 54.6 49 2.1 35.8
06:35 1021 30.15 850 25.1 13 55.4 46 1.8 35.2
06:40 1021 30.15 850 25.1 13.4 56 45 1.9 35.3
06:45 1021 30.15 850 25.1 13.5 56.3 44 1.6 34.9
06:50 1021 30.15 851 25.13 13.7 56.7 44 1.9 35.4
06:55 1021 30.15 851 25.13 13.8 56.8 45 2.1 35.7
07:00 1021 30.15 851 25.13 13.8 56.8 46 2.5 36.5
07:05 1021 30.15 851 25.13 13.6 56.6 49 3.1 37.5
07:10 1021 30.15 851 25.13 13.5 56.4 49 3.2 37.8
07:15 1021 30.15 851 25.13 13.7 56.6 49 3.3 37.9
07:20 1021 30.15 851 25.13 14 57.2 48 3.2 37.7
07:25 1021 30.15 851 25.13 14.4 57.8 47 3.3 38
07:30 1021 30.15 851 25.13 14.9 58.7 44 2.9 37.3
07:35 1021 30.15 851 25.13 15.1 59.3 44 3 37.4
07:40 1021 30.15 851 25.13 15.4 59.6 45 3.5 38.3
07:45 1022 30.18 851 25.13 15.5 60 44 3.4 38.1
07:50 1022 30.18 851 25.13 16.1 60.9 41 2.8 37
07:55 1022 30.18 851 25.13 17 62.6 39 3 37.4
08:00 1021 30.15 851 25.13 17.5 63.5 39 3.5 38.3
08:05 1021 30.15 851 25.13 17.8 64 39 3.6 38.5
08:10 1022 30.18 851 25.13 18.1 64.5 38 3.8 38.9
08:15 1022 30.18 851 25.13 18 64.3 38 3.6 38.5
08:20 1022 30.18 851 25.13 18.4 65.2 34 2.2 36
08:25 1022 30.18 851 25.13 18.4 65.2 33 2.1 35.7
08:30 1022 30.18 851 25.13 18.8 65.9 34 2.7 36.9
08:35 1022 30.18 851 25.13 19.2 66.5 33 2.5 36.5
08:40 1022 30.18 851 25.13 19 66.3 34 2.8 37
08:45 1022 30.18 851 25.13 19.2 66.5 33 2.8 37
08:50 1022 30.18 851 25.13 19.9 67.8 31 2.3 36.1
08:55 1022 30.18 851 25.13 20.2 68.4 34 4.2 39.5
09:00 1022 30.18 851 25.13 20.5 68.9 31 3 37.4
09:05 1022 30.18 851 25.13 20.9 69.6 30 2.6 36.8
09:10 1022 30.18 851 25.13 21.7 71 29 2.8 37.1
09:15 1022 30.18 851 25.13 21.3 70.4 29 2.7 36.8
09:20 1022 30.18 851 25.13 20.9 69.7 28 1.9 35.4
09:25 1022 30.18 851 25.13 21.6 70.9 27 2.1 35.7
09:25 1022 30.18 851 25.13 21.6 70.9 27 2.1 35.7
09:30 1022 30.18 851 25.13 22 71.6 27 2.1 35.8
09:35 1022 30.18 851 25.13 22.3 72.1 25 1.6 35
09:40 1022 30.18 851 25.13 22.8 73.1 25 2.1 35.8
09:45 1022 30.18 851 25.13 23.2 73.8 25 2.3 36.2
09:50 1022 30.18 851 25.13 23.6 74.4 25 2.5 36.6
09:55 1022 30.18 851 25.13 23.5 74.2 25 2.6 36.8
10:00 1022 30.18 851 25.13 23.8 74.8 23 1.8 35.2
10:05 1022 30.18 851 25.13 23.7 74.6 25 2.5 36.5
10:10 1022 30.18 851 25.13 23.3 73.9 23 1.2 34.2
10:15 1022 30.18 851 25.13 23.1 73.6 25 2.2 35.9
10:20 1022 30.18 851 25.13 23.3 73.9 23 1.1 33.9
10:25 1022 30.18 851 25.13 23.6 74.4 22 0.9 33.5
10:30 1022 30.18 851 25.13 23.6 74.4 23 1.4 34.6
10:35 1022 30.18 851 25.13 23.2 73.8 24 1.7 35.1
10:40 1022 30.18 851 25.13 22.6 72.7 23 0.7 33.3
10:45 1022 30.18 851 25.13 23.2 73.7 23 1.2 34.2
10:50 1022 30.18 851 25.13 23.9 75 22 1.3 34.3
10:55 1022 30.18 851 25.13 24.1 75.4 22 1.2 34.2
11:00 1022 30.18 851 25.13 24.1 75.4 22 1.5 34.7
11:05 1022 30.18 851 25.13 24 75.2 23 1.7 35.1
11:10 1022 30.18 851 25.13 24.2 75.5 22 1.1 34
11:15 1022 30.18 851 25.13 24.2 75.6 23 1.7 35.1
11:20 1022 30.18 851 25.13 23.6 74.5 23 1.5 34.7
11:25 1021 30.15 851 25.13 24 75.3 23 1.6 34.9
11:30 1021 30.15 851 25.13 24.1 75.3 22 1.1 34
11:35 1021 30.15 851 25.13 23.5 74.2 23 1.5 34.7
11:40 1021 30.15 851 25.13 23.5 74.2 21 0.3 32.6
11:45 1021 30.15 851 25.13 24.5 76 22 1.4 34.5
11:50 1021 30.15 851 25.13 25 77 21 1.1 34.1
11:55 1021 30.15 851 25.13 25.2 77.4 21 1.6 34.8
12:00 1021 30.15 851 25.13 24.8 76.6 21 1.1 34
12:05 1021 30.15 851 25.13 25.1 77.1 21 1.7 35.1
12:10 1021 30.15 851 25.13 25.1 77.2 22 1.9 35.4
12:15 1021 30.15 851 25.13 25.2 77.3 21 1.6 34.8
12:20 1021 30.15 851 25.13 25 77 22 1.9 35.5
12:25 1021 30.15 851 25.13 25.5 78 22 2.3 36.1
12:30 1021 30.15 851 25.13 25.3 77.5 21 1.8 35.2
12:35 1021 30.15 851 25.13 25 77.1 21 1.5 34.6
12:40 1021 30.15 851 25.13 25.1 77.1 21 1.5 34.6
12:45 1021 30.15 851 25.13 25.1 77.1 21 1.3 34.3
12:50 1021 30.15 851 25.13 25.6 78.1 21 2.1 35.8
12:55 1021 30.15 851 25.13 25.5 77.8 20 0.9 33.6
13:00 1021 30.15 851 25.13 25.8 78.4 20 1.6 34.9
13:05 1021 30.15 851 25.13 25.7 78.2 19 0.7 33.3
13:10 1021 30.15 850 25.1 25.8 78.4 20 1.3 34.4
13:15 1021 30.15 850 25.1 25.6 78.1 19 0.6 33.2
13:20 1021 30.15 850 25.1 26 78.7 19 0.7 33.2
13:25 1021 30.15 850 25.1 25.7 78.3 20 1.5 34.7
13:30 1021 30.15 850 25.1 25.7 78.2 19 1 33.7
13:35 1021 30.15 850 25.1 25.9 78.6 19 1 33.8
13:40 1021 30.15 850 25.1 25.4 77.8 20 1.1 34
13:45 1021 30.15 850 25.1 25.8 78.4 18 -0.2 31.7
13:50 1021 30.15 850 25.1 25.7 78.2 20 1.4 34.6
13:55 1021 30.15 850 25.1 25.3 77.6 20 1.3 34.4
14:00 1021 30.15 850 25.1 25.5 77.9 19 0.6 33
14:05 1021 30.15 850 25.1 25.7 78.2 19 0.8 33.4
14:10 1021 30.15 850 25.1 25.6 78.1 20 1.4 34.5
14:15 1021 30.15 850 25.1 25.7 78.2 19 0.5 33
14:20 1021 30.15 850 25.1 26 78.8 19 1.2 34.2
14:25 1021 30.15 850 25.1 26.1 79 19 0.6 33.1
14:30 1021 30.15 850 25.1 26.2 79.1 19 1.2 34.2
14:35 1021 30.15 850 25.1 26.2 79.2 18 0.3 32.6
14:40 1021 30.15 850 25.1 26.4 79.6 18 0.4 32.8
14:45 1021 30.15 850 25.1 26.3 79.3 18 0.7 33.2
14:50 1021 30.15 850 25.1 26 78.7 19 0.5 32.9
14:55 1021 30.15 850 25.1 25.9 78.7 20 1.6 34.9
15:00 1021 30.15 850 25.1 25.9 78.5 19 0.4 32.7
15:05 1021 30.15 850 25.1 25.7 78.2 18 0.2 32.3
15:10 1021 30.15 850 25.1 25.8 78.5 19 0.7 33.3
15:15 1021 30.15 850 25.1 26.1 79 18 -0 31.9
15:20 1021 30.15 850 25.1 26.1 79 17 -0.2 31.6
15:25 1021 30.15 850 25.1 26.1 79 17 -0.8 30.6
15:30 1021 30.15 850 25.1 26.4 79.5 19 1.1 33.9
15:35 1021 30.15 850 25.1 26.4 79.5 17 -0.4 31.3
15:40 1021 30.15 850 25.1 26.4 79.5 17 0 32
15:45 1021 30.15 850 25.1 26.3 79.3 17 -0.7 30.7
15:50 1021 30.15 850 25.1 26.2 79.1 18 0.5 32.8
15:55 1021 30.15 850 25.1 26 78.7 17 -0.6 30.9
16:00 1021 30.15 850 25.1 26.3 79.4 19 0.8 33.5
16:05 1021 30.15 850 25.1 26.3 79.4 17 -0.1 31.8
16:10 1021 30.15 850 25.1 26.5 79.7 16 -1.1 30
16:15 1021 30.15 850 25.1 26.7 80.1 17 0.3 32.6
16:20 1020 30.12 850 25.1 26.9 80.5 16 -0.4 31.3
16:25 1020 30.12 850 25.1 26.7 80.1 16 -1.3 29.6
16:30 1020 30.12 850 25.1 26.2 79.2 16 -1.7 28.9
16:35 1020 30.12 850 25.1 26.2 79.1 17 -0.7 30.7
16:40 1020 30.12 850 25.1 26.1 78.9 17 -0.4 31.2
16:45 1020 30.12 850 25.1 26.1 79 16 -1 30.1
16:50 1020 30.12 850 25.1 26.2 79.2 16 -1.6 29
16:55 1020 30.12 850 25.1 26.6 79.8 17 -0.3 31.4
17:00 1020 30.12 850 25.1 26.4 79.6 15 -1.6 29.1
17:05 1020 30.12 850 25.1 26.4 79.5 18 0.3 32.6
17:10 1020 30.12 850 25.1 26.4 79.6 16 -1.5 29.4
17:15 1020 30.12 850 25.1 25.9 78.7 17 -1 30.3
17:20 1020 30.12 850 25.1 26.1 78.9 17 -1 30.3
17:25 1020 30.12 850 25.1 25.9 78.7 18 -0.3 31.5
17:25 1020 30.12 850 25.1 25.9 78.7 18 -0.3 31.5
17:30 1020 30.12 850 25.1 26 78.8 17 -0.6 30.8
17:35 1020 30.12 850 25.1 26 78.7 17 -0.7 30.8
17:40 1020 30.12 850 25.1 25.8 78.4 18 -0.3 31.4
17:45 1020 30.12 850 25.1 25.8 78.4 17 -0.7 30.7
17:50 1020 30.12 850 25.1 25.3 77.6 19 -0 31.9
17:55 1020 30.12 850 25.1 25.1 77.1 18 -0.4 31.2
18:00 1020 30.12 850 25.1 25.1 77.1 18 -0.7 30.8
18:05 1020 30.12 850 25.1 25 77 18 -0.8 30.5
18:10 1020 30.12 850 25.1 24.8 76.6 19 -0.5 31.2
18:15 1020 30.12 849 25.07 24.7 76.5 20 0.7 33.3
18:20 1020 30.12 849 25.07 24.7 76.5 20 0.7 33.3
18:25 1020 30.12 849 25.07 24.7 76.4 20 0.3 32.6
18:30 1020 30.12 850 25.1 24.6 76.2 20 0.1 32.1
18:35 1020 30.12 850 25.1 24.5 76 21 1 33.8
18:40 1020 30.12 850 25.1 24.3 75.8 21 1.1 34
18:45 1020 30.12 850 25.1 24.2 75.5 21 0.5 32.8
18:50 1020 30.12 850 25.1 24.2 75.5 21 0.6 33.1
18:55 1020 30.12 850 25.1 24 75.2 20 0.1 32.3
19:00 1020 30.12 850 25.1 23.9 75 21 0.3 32.5
19:05 1020 30.12 850 25.1 23.7 74.6 26 3.2 37.7
19:10 1021 30.15 850 25.1 23.3 73.9 29 4.6 40.3
19:15 1021 30.15 850 25.1 22.4 72.4 32 5 41
19:20 1021 30.15 850 25.1 21.8 71.2 31 4.1 39.4
19:25 1021 30.15 850 25.1 21.4 70.5 31 3.9 39
19:30 1021 30.15 850 25.1 21.2 70.2 32 4 39.3
19:35 1021 30.15 850 25.1 20.9 69.6 33 4 39.2
19:40 1021 30.15 850 25.1 20.4 68.7 33 3.9 39.1
19:45 1021 30.15 850 25.1 20 68.1 33 3.5 38.4
19:50 1021 30.15 850 25.1 19.8 67.6 34 3.7 38.6
19:55 1021 30.15 850 25.1 19.4 67 35 3.7 38.7
20:00 1021 30.15 850 25.1 19.2 66.6 35 3.5 38.3
20:05 1021 30.15 850 25.1 19 66.1 36 3.5 38.4
20:10 1021 30.15 850 25.1 18.8 65.8 37 4.1 39.4
20:15 1021 30.15 850 25.1 18.3 65 39 4.1 39.5
20:20 1021 30.15 850 25.1 17.9 64.3 39 3.8 38.9
20:25 1021 30.15 851 25.13 17.8 64 40 4.2 39.5
20:30 1021 30.15 851 25.13 17.5 63.5 40 3.9 39
20:35 1021 30.15 851 25.13 17.3 63.2 37 2.6 36.7
20:40 1021 30.15 851 25.13 17.6 63.7 36 2.4 36.3
20:45 1022 30.18 851 25.13 17.7 63.8 36 2.6 36.6
20:50 1021 30.15 851 25.13 17.4 63.3 36 2.1 35.8
20:55 1021 30.15 851 25.13 17.5 63.6 36 2.6 36.6
21:00 1022 30.18 851 25.13 17.5 63.6 35 2.2 35.9
21:05 1022 30.18 851 25.13 17.3 63.2 36 2.3 36.2
21:10 1022 30.18 851 25.13 17.3 63.2 35 1.8 35.3
21:15 1022 30.18 851 25.13 17.3 63.2 34 1.6 34.9
21:20 1022 30.18 851 25.13 17.4 63.4 35 2.1 35.8
21:25 1022 30.18 851 25.13 17.2 62.9 36 2 35.6
21:30 1022 30.18 851 25.13 17 62.5 37 2.2 36
21:35 1022 30.18 851 25.13 16.8 62.2 36 1.8 35.3
21:40 1022 30.18 851 25.13 16.6 61.9 37 1.9 35.4
21:45 1022 30.18 851 25.13 16.5 61.7 37 1.9 35.5
21:50 1022 30.18 851 25.13 16.4 61.5 37 1.9 35.5
21:55 1022 30.18 851 25.13 16.4 61.5 37 1.9 35.4
22:00 1022 30.18 851 25.13 16.4 61.6 37 1.7 35.1
22:05 1022 30.18 851 25.13 16.4 61.5 36 1.6 34.8
22:10 1022 30.18 851 25.13 16.5 61.7 35 1.3 34.3
22:15 1022 30.18 851 25.13 16.5 61.6 36 1.4 34.5
22:20 1022 30.18 851 25.13 16.4 61.5 36 1.4 34.5
22:25 1022 30.18 851 25.13 16.3 61.4 36 1.5 34.7
22:30 1022 30.18 851 25.13 16.3 61.3 36 1.4 34.6
22:35 1022 30.18 851 25.13 16.5 61.8 35 1 33.8
22:40 1022 30.18 851 25.13 16.7 62 35 1.3 34.4
22:45 1022 30.18 851 25.13 16.5 61.7 35 1.1 33.9
22:50 1022 30.18 851 25.13 16.7 62 34 0.9 33.6
22:55 1022 30.18 851 25.13 16.8 62.2 34 1.1 34
23:00 1022 30.18 851 25.13 16.5 61.8 36 1.6 34.9
23:05 1022 30.18 851 25.13 16.2 61.2 39 2.2 36
23:10 1022 30.18 851 25.13 15.7 60.2 41 2.4 36.4
23:15 1022 30.18 851 25.13 15.3 59.6 42 2.4 36.3
23:20 1022 30.18 851 25.13 15 59 43 2.8 37
23:25 1022 30.18 851 25.13 14.8 58.6 44 2.6 36.6
23:30 1022 30.18 851 25.13 14.8 58.6 44 2.6 36.7
23:35 1022 30.18 851 25.13 14.7 58.5 44 2.7 36.9
23:40 1022 30.18 851 25.13 14.7 58.4 44 2.5 36.6
23:45 1022 30.18 851 25.13 14.6 58.3 44 2.6 36.8
23:50 1022 30.18 852 25.16 14.5 58.1 45 2.7 36.8
23:55 1022 30.18 852 25.16 14.3 57.8 45 2.7 36.9
24:00 1022 30.18 852 25.16 14.2 57.6 44 2.3 36.2